Time;durP1;ratioP1;P1;durP2;ratioP2;P2;SDS_P1;SDS_P2;PMS_P1;PMS_P2;Temp;Humidity;BMP_temperature;BMP_pressure;BME280_temperature;BME280_humidity;BME280_pressure;Samples;Min_cycle;Max_cycle;Signal;HPM_P1;HPM_P2
2022/06/21 00:00:32;;;;;;;4.30;0.60;;;;;;;19.78;54.84;98420.02;233646;1217;138559;-56
2022/06/21 00:05:41;;;;;;;1.40;0.60;;;;;;;19.76;54.89;98427.45;234433;1217;139697;-58
2022/06/21 00:10:46;;;;;;;1.70;0.40;;;;;;;19.69;54.83;98431.63;234337;1217;138925;-57
2022/06/21 00:15:53;;;;;;;1.10;0.60;;;;;;;19.59;55.09;98450.27;234312;1217;138794;-58
2022/06/21 00:20:57;;;;;;;1.60;0.60;;;;;;;19.47;55.26;98455.36;234155;1217;139597;-58
2022/06/21 00:26:00;;;;;;;1.70;0.70;;;;;;;19.34;55.27;98460.86;234156;1217;139246;-56
2022/06/21 00:31:09;;;;;;;2.50;0.60;;;;;;;19.22;55.19;98473.17;232313;1217;139028;-56
2022/06/21 00:36:28;;;;;;;2.20;0.60;;;;;;;19.13;55.35;98474.83;232996;1217;140244;-54
2022/06/21 00:41:37;;;;;;;2.00;0.40;;;;;;;19.07;55.28;98480.21;234281;1217;138622;-57
2022/06/21 00:46:45;;;;;;;2.20;0.50;;;;;;;19.02;55.23;98476.40;234403;1217;138878;-56
2022/06/21 00:51:52;;;;;;;1.50;0.60;;;;;;;18.99;55.12;98477.95;232358;1217;139028;-54
2022/06/21 00:57:00;;;;;;;4.10;0.50;;;;;;;18.90;55.09;98469.77;234269;1217;138788;-55
2022/06/21 01:02:46;;;;;;;1.80;0.60;;;;;;;18.78;54.76;98480.74;234252;1206;138252;31
2022/06/21 01:07:54;;;;;;;0.70;0.50;;;;;;;18.65;54.34;98486.21;231274;1224;139224;-54
2022/06/21 01:13:01;;;;;;;2.10;0.90;;;;;;;18.56;54.26;98490.85;233653;1222;138806;-52
2022/06/21 01:18:09;;;;;;;1.50;0.90;;;;;;;18.48;54.01;98482.92;233906;1222;139918;-55
2022/06/21 01:23:46;;;;;;;2.10;1.00;;;;;;;18.38;53.92;98478.20;233713;1222;139436;-55
2022/06/21 01:28:51;;;;;;;1.60;1.50;;;;;;;18.24;53.75;98479.52;233697;1222;140802;-53
2022/06/21 01:33:54;;;;;;;1.70;1.50;;;;;;;18.16;53.57;98473.33;233768;1222;138930;-53
2022/06/21 01:39:08;;;;;;;3.30;1.80;;;;;;;18.08;53.91;98476.66;233300;1222;139053;-54
2022/06/21 01:44:27;;;;;;;2.60;1.60;;;;;;;18.09;53.74;98470.65;233645;1222;138808;-52
2022/06/21 01:49:34;;;;;;;2.10;1.70;;;;;;;18.04;53.66;98474.93;233732;1222;138658;-51
2022/06/21 01:54:43;;;;;;;2.90;1.80;;;;;;;17.97;53.83;98478.81;233804;1223;138429;-54
2022/06/21 01:59:49;;;;;;;2.10;1.60;;;;;;;17.97;53.79;98481.54;233844;1223;138973;-52
2022/06/21 02:05:03;;;;;;;1.50;1.40;;;;;;;17.95;53.78;98492.66;233697;1223;138443;-57
2022/06/21 02:10:09;;;;;;;3.10;1.70;;;;;;;17.91;53.76;98491.61;233826;1223;138689;-58
2022/06/21 02:15:40;;;;;;;2.20;1.70;;;;;;;17.89;53.89;98490.02;232335;1222;138475;-58
2022/06/21 02:20:49;;;;;;;3.40;1.70;;;;;;;17.90;53.82;98494.27;231763;1222;138622;-57
2022/06/21 02:25:56;;;;;;;3.80;1.80;;;;;;;17.84;53.82;98491.31;233818;1223;138634;-57
2022/06/21 02:30:59;;;;;;;2.30;1.40;;;;;;;17.75;53.74;98499.13;233611;1223;139435;-59
2022/06/21 02:36:16;;;;;;;3.00;1.40;;;;;;;17.71;53.68;98498.66;233998;1223;138790;-59
2022/06/21 02:41:28;;;;;;;2.00;1.80;;;;;;;17.68;53.96;98495.52;233880;1222;138334;-56
2022/06/21 02:46:34;;;;;;;3.00;1.50;;;;;;;17.62;53.54;98499.70;233730;1223;139005;-56
2022/06/21 02:51:44;;;;;;;2.80;1.60;;;;;;;17.58;53.55;98498.54;233763;1222;138728;-57
2022/06/21 02:56:57;;;;;;;2.40;1.40;;;;;;;17.58;53.41;98505.58;233883;1222;139190;-58
2022/06/21 03:02:07;;;;;;;2.40;1.40;;;;;;;17.61;53.30;98504.69;233429;1223;244578;-58
2022/06/21 03:07:16;;;;;;;2.70;1.70;;;;;;;17.58;53.57;98506.02;233633;1223;138692;-58
2022/06/21 03:12:23;;;;;;;2.50;1.60;;;;;;;17.55;53.22;98511.56;233533;1223;139193;-58
2022/06/21 03:17:36;;;;;;;3.30;1.90;;;;;;;17.50;53.21;98519.89;233100;1222;139045;-57
2022/06/21 03:22:41;;;;;;;4.20;1.80;;;;;;;17.46;53.13;98528.20;233878;1223;138563;-58
2022/06/21 03:27:56;;;;;;;4.80;2.30;;;;;;;17.41;53.17;98541.85;233744;1223;138569;-58
2022/06/21 03:33:03;;;;;;;3.00;2.00;;;;;;;17.39;53.17;98541.09;233463;1223;138469;-56
2022/06/21 03:38:06;;;;;;;7.10;2.30;;;;;;;17.36;53.26;98542.55;233830;1222;139122;-59
2022/06/21 03:43:37;;;;;;;6.20;2.90;;;;;;;17.32;53.32;98540.92;233585;1223;139624;-58
2022/06/21 03:48:48;;;;;;;5.40;2.30;;;;;;;17.34;53.54;98543.64;233523;1223;138687;-57
2022/06/21 03:53:58;;;;;;;6.70;3.00;;;;;;;17.35;53.40;98541.30;233598;1223;138681;-58
2022/06/21 03:59:33;;;;;;;7.10;3.20;;;;;;;17.32;53.59;98545.77;233798;1223;138883;-58
2022/06/21 04:04:49;;;;;;;6.70;3.20;;;;;;;17.35;53.40;98545.14;233421;1223;139116;-57
2022/06/21 04:10:03;;;;;;;3.20;2.90;;;;;;;17.35;53.29;98541.67;233276;1223;138692;-57
2022/06/21 04:15:06;;;;;;;4.60;3.30;;;;;;;17.41;53.40;98531.96;232964;1223;138415;-55
2022/06/21 04:20:29;;;;;;;6.60;3.20;;;;;;;17.45;53.26;98530.07;231445;1223;139056;-54
2022/06/21 04:25:41;;;;;;;4.60;3.20;;;;;;;17.46;52.91;98531.27;233524;1223;138942;-56
2022/06/21 04:30:55;;;;;;;4.20;2.90;;;;;;;17.43;53.12;98526.36;233405;1223;138404;-56
2022/06/21 04:36:03;;;;;;;7.80;2.60;;;;;;;17.46;53.16;98527.20;233583;1223;140382;-57
2022/06/21 04:41:11;;;;;;;6.10;2.70;;;;;;;17.45;53.14;98527.80;233458;1224;138920;-58
2022/06/21 04:46:34;;;;;;;4.10;2.80;;;;;;;17.45;52.83;98528.51;233685;1221;138604;-58
2022/06/21 04:51:49;;;;;;;5.90;2.40;;;;;;;17.49;53.00;98537.95;233133;1223;138422;-58
2022/06/21 04:57:04;;;;;;;6.80;3.10;;;;;;;17.54;53.34;98523.46;233503;1223;138333;-58
2022/06/21 05:02:21;;;;;;;4.10;3.00;;;;;;;17.59;53.22;98535.21;231855;1223;140144;-58
2022/06/21 05:07:29;;;;;;;3.90;2.80;;;;;;;17.46;53.21;98540.73;233592;1223;139190;-59
2022/06/21 05:12:39;;;;;;;7.40;4.00;;;;;;;17.37;53.20;98540.06;233745;1223;138444;-60
2022/06/21 05:17:47;;;;;;;16.70;11.20;;;;;;;17.35;53.41;98542.41;233553;1224;140192;-59
2022/06/21 05:22:54;;;;;;;5.60;3.10;;;;;;;17.38;53.61;98536.17;233457;1223;138771;-59
2022/06/21 05:28:04;;;;;;;6.10;3.00;;;;;;;17.41;53.54;98543.19;233358;1223;138593;-59
2022/06/21 05:33:17;;;;;;;6.60;3.10;;;;;;;17.33;53.46;98543.81;233638;1223;140333;-57
2022/06/21 05:38:23;;;;;;;4.10;3.20;;;;;;;17.32;53.61;98538.80;233512;1224;139233;-56
2022/06/21 05:43:34;;;;;;;13.00;7.10;;;;;;;17.42;53.79;98544.27;233618;1223;138148;-57
2022/06/21 05:48:40;;;;;;;7.10;3.20;;;;;;;17.45;53.31;98549.89;233590;1223;139406;-58
2022/06/21 05:53:45;;;;;;;;;;;;;;;17.48;53.22;98552.27;233801;1223;139594;-56
2022/06/21 05:58:53;;;;;;;3.70;2.70;;;;;;;17.45;53.13;98548.58;233618;1223;125995;-57
2022/06/21 06:04:03;;;;;;;7.90;3.10;;;;;;;17.46;52.97;98560.53;232504;1223;138177;-57
2022/06/21 06:09:13;;;;;;;7.90;4.20;;;;;;;17.38;52.97;98560.77;232960;1222;138757;-58
2022/06/21 06:14:19;;;;;;;6.30;2.70;;;;;;;17.44;53.17;98562.70;233698;1222;139000;-58
2022/06/21 06:19:47;;;;;;;6.60;3.00;;;;;;;17.48;52.96;98560.51;233454;1222;138476;-58
2022/06/21 06:25:16;;;;;;;13.50;9.60;;;;;;;17.46;52.41;98556.86;233716;1222;138815;-58
2022/06/21 06:30:58;;;;;;;8.50;3.00;;;;;;;17.56;52.89;98565.96;231894;1222;139683;-57
2022/06/21 06:36:07;;;;;;;3.80;2.00;;;;;;;17.58;52.06;98557.75;232886;1222;138555;-61
2022/06/21 06:41:20;;;;;;;5.80;2.40;;;;;;;17.57;52.29;98554.73;233710;1222;138627;-58
2022/06/21 06:46:35;;;;;;;4.50;2.00;;;;;;;17.66;51.98;98555.44;232490;1222;138485;-58
2022/06/21 06:52:11;;;;;;;5.50;2.30;;;;;;;17.67;51.86;98548.20;233796;1222;138468;-57
2022/06/21 06:57:28;;;;;;;5.30;2.10;;;;;;;17.70;51.67;98556.36;233709;1222;138498;-58
2022/06/21 07:02:54;;;;;;;6.00;2.10;;;;;;;17.64;51.46;98556.06;233431;1222;138837;-54
2022/06/21 07:08:04;;;;;;;5.30;2.00;;;;;;;17.58;51.08;98565.08;233289;1222;138045;-57
2022/06/21 07:13:09;;;;;;;10.10;2.10;;;;;;;17.51;51.32;98559.46;233683;1222;138316;-59
2022/06/21 07:18:23;;;;;;;5.90;2.10;;;;;;;17.58;51.04;98556.44;233108;1222;139287;-58
2022/06/21 07:23:28;;;;;;;4.40;1.60;;;;;;;17.65;50.54;98544.60;231502;1222;138481;-57
2022/06/21 07:28:47;;;;;;;13.90;9.20;;;;;;;17.71;50.40;98551.77;231607;1222;140680;-60
2022/06/21 07:34:03;;;;;;;3.60;1.40;;;;;;;17.66;50.14;98548.00;233637;1222;138436;-58
2022/06/21 07:39:12;;;;;;;4.70;1.60;;;;;;;17.69;49.78;98563.41;233208;1222;138824;-58
2022/06/21 07:44:23;;;;;;;4.10;1.70;;;;;;;17.74;49.66;98555.94;233398;1222;138400;-59
2022/06/21 07:49:37;;;;;;;8.60;1.50;;;;;;;17.87;49.24;98568.34;231813;1223;139452;-58
2022/06/21 07:54:51;;;;;;;2.60;1.10;;;;;;;17.81;48.74;98583.61;231690;1224;138210;-60
2022/06/21 08:00:01;;;;;;;2.10;1.30;;;;;;;17.70;48.46;98577.69;233368;1222;138842;-58
2022/06/21 08:10:47;;;;;;;2.70;1.20;;;;;;;17.96;48.52;98582.33;232512;1221;139026;-61
2022/06/21 08:16:08;;;;;;;9.20;1.10;;;;;;;17.93;47.97;98580.99;233872;1222;138547;-55
2022/06/21 08:21:31;;;;;;;2.90;0.90;;;;;;;17.91;47.83;98586.25;233815;1222;138899;-51
2022/06/21 08:26:46;;;;;;;3.70;0.90;;;;;;;17.91;47.92;98585.86;233763;1222;138344;-58
2022/06/21 08:31:55;;;;;;;5.60;1.30;;;;;;;17.94;47.82;98564.23;233700;1222;138327;-58
2022/06/21 08:37:09;;;;;;;4.80;1.10;;;;;;;18.05;47.36;98563.46;233781;1222;138563;-56
2022/06/21 08:42:46;;;;;;;2.30;1.20;;;;;;;18.11;47.45;98572.01;233737;1222;138246;-56
2022/06/21 08:48:40;;;;;;;3.90;1.60;;;;;;;18.27;47.49;98585.17;233785;1222;138651;-56
2022/06/21 08:53:43;;;;;;;3.30;0.90;;;;;;;18.36;46.96;98589.10;232775;1221;140050;-57
2022/06/21 08:59:08;;;;;;;5.40;0.90;;;;;;;18.28;46.48;98605.71;231537;1222;138347;-54
2022/06/21 09:04:39;;;;;;;2.30;0.90;;;;;;;18.24;46.44;98601.45;233730;1222;137945;-58
2022/06/21 09:09:57;;;;;;;54.80;38.10;;;;;;;18.33;46.68;98601.77;233587;1222;138522;-56
2022/06/21 09:15:06;;;;;;;7.10;2.00;;;;;;;18.51;46.70;98606.98;231859;1222;139475;-56
2022/06/21 09:20:15;;;;;;;2.00;0.70;;;;;;;18.65;46.37;98607.67;233655;1222;138478;-53
2022/06/21 09:25:44;;;;;;;4.90;0.70;;;;;;;18.77;46.05;98602.16;233643;1222;138929;-55
2022/06/21 09:30:57;;;;;;;2.90;0.80;;;;;;;18.90;45.91;98601.38;233386;1222;139588;-54
2022/06/21 09:36:09;;;;;;;2.60;0.80;;;;;;;18.95;45.61;98599.36;233391;1222;138579;-57
2022/06/21 09:41:23;;;;;;;2.30;0.80;;;;;;;18.90;45.29;98601.67;233140;1222;139600;-52
2022/06/21 09:46:55;;;;;;;2.20;0.90;;;;;;;18.87;45.41;98599.27;233140;1221;138941;-56
2022/06/21 09:52:10;;;;;;;7.50;6.30;;;;;;;18.76;45.06;98596.86;232490;1223;141299;-55
2022/06/21 09:57:30;;;;;;;20.40;8.60;;;;;;;18.63;45.29;98603.90;232634;1223;138883;-55
2022/06/21 10:03:03;;;;;;;5.90;1.90;;;;;;;18.59;45.45;98608.13;232884;1223;141434;-55
2022/06/21 10:08:20;;;;;;;8.30;3.10;;;;;;;18.54;45.38;98611.73;233298;1223;139087;-56
2022/06/21 10:13:31;;;;;;;3.90;1.70;;;;;;;18.66;45.52;98610.77;233076;1222;139007;-52
2022/06/21 10:18:55;;;;;;;7.40;1.90;;;;;;;18.80;45.60;98603.51;232984;1222;139895;-59
2022/06/21 10:24:06;;;;;;;5.50;1.30;;;;;;;18.84;45.51;98604.83;233168;1222;139068;-54
2022/06/21 10:29:25;;;;;;;2.30;1.30;;;;;;;18.93;45.51;98593.84;233205;1223;138923;-53
2022/06/21 10:34:53;;;;;;;6.40;4.10;;;;;;;19.17;45.55;98599.08;232615;1223;138565;-51
2022/06/21 10:40:26;;;;;;;4.40;1.20;;;;;;;19.33;45.11;98591.60;233054;1223;139617;-54
2022/06/21 10:45:47;;;;;;;2.90;1.00;;;;;;;19.36;44.89;98598.52;232021;1221;138670;-55
2022/06/21 10:51:08;;;;;;;4.50;1.10;;;;;;;19.33;44.51;98604.27;232930;1223;140165;-55
2022/06/21 11:02:17;;;;;;;2.30;1.00;;;;;;;19.28;44.23;98610.86;233065;1222;139155;-55
2022/06/21 11:07:43;;;;;;;4.90;1.00;;;;;;;19.28;44.28;98611.27;233148;1223;139676;-56
2022/06/21 11:12:52;;;;;;;3.60;1.00;;;;;;;19.29;44.22;98615.15;232786;1223;138636;-56
2022/06/21 11:18:22;;;;;;;1.90;0.90;;;;;;;19.23;44.09;98619.31;232487;1221;138713;-57
2022/06/21 11:23:53;;;;;;;5.20;1.00;;;;;;;19.21;44.36;98619.94;233158;1223;138896;-56
2022/06/21 11:29:21;;;;;;;5.20;1.10;;;;;;;19.25;44.46;98627.04;233102;1223;138483;-57
2022/06/21 11:34:42;;;;;;;4.70;1.00;;;;;;;19.30;44.27;98635.71;232558;1222;138678;-57
2022/06/21 11:40:00;;;;;;;5.50;0.90;;;;;;;19.37;44.33;98622.54;232648;1223;138876;-58
2022/06/21 11:45:06;;;;;;;6.60;1.70;;;;;;;19.37;44.31;98619.68;233002;1222;139213;-58
2022/06/21 11:50:32;;;;;;;5.90;1.30;;;;;;;19.35;44.20;98625.57;233133;1223;138678;-54
2022/06/21 11:55:51;;;;;;;1.30;1.00;;;;;;;19.46;44.71;98630.45;232952;1223;138515;-56
2022/06/21 12:01:03;;;;;;;4.90;1.10;;;;;;;19.77;44.61;98630.93;232966;1223;138790;-56
2022/06/21 12:06:30;;;;;;;3.20;1.10;;;;;;;19.78;44.17;98638.05;232746;1224;151784;-57
2022/06/21 12:12:04;;;;;;;5.80;1.30;;;;;;;19.79;44.23;98641.69;232764;1224;138349;-56
2022/06/21 12:17:28;;;;;;;10.60;1.20;;;;;;;19.86;44.36;98630.34;232597;1224;141184;-57
2022/06/21 12:22:37;;;;;;;4.40;1.30;;;;;;;19.94;44.30;98630.01;232616;1224;139172;-55
2022/06/21 12:27:40;;;;;;;4.00;1.00;;;;;;;20.09;44.71;98620.98;233177;1223;138634;-53
2022/06/21 12:32:44;;;;;;;4.40;1.10;;;;;;;20.23;44.65;98624.98;233199;1222;138533;-57
2022/06/21 12:37:52;;;;;;;4.10;1.20;;;;;;;20.18;44.09;98624.67;233052;1223;139819;-57
2022/06/21 12:43:14;;;;;;;3.60;1.10;;;;;;;19.99;43.63;98624.96;233104;1222;138811;-57
2022/06/21 12:48:54;;;;;;;7.30;1.30;;;;;;;19.81;43.76;98619.45;233314;1222;138499;-56
2022/06/21 12:54:18;;;;;;;4.60;1.10;;;;;;;20.01;44.02;98614.50;233210;1222;139065;-56
2022/06/21 12:59:44;;;;;;;8.30;1.40;;;;;;;20.10;43.86;98611.58;233049;1222;138895;-57
2022/06/21 13:04:47;;;;;;;5.20;1.00;;;;;;;20.08;43.63;98603.77;233217;1222;139155;-57
2022/06/21 13:10:00;;;;;;;4.90;1.00;;;;;;;19.98;43.55;98609.38;233110;1222;138628;-58
2022/06/21 13:15:22;;;;;;;2.50;1.00;;;;;;;19.87;43.47;98600.45;233218;1222;138612;-53
2022/06/21 13:20:31;;;;;;;5.00;1.10;;;;;;;19.73;43.44;98602.58;233195;1222;138410;-58
2022/06/21 13:25:45;;;;;;;5.40;1.30;;;;;;;19.73;43.68;98607.95;233111;1223;138926;-56
2022/06/21 13:31:03;;;;;;;8.10;1.20;;;;;;;19.67;43.66;98610.55;232978;1223;138526;-57
2022/06/21 13:36:06;;;;;;;3.70;1.10;;;;;;;19.73;44.05;98610.13;232137;1222;139511;-57
2022/06/21 13:47:05;;;;;;;5.10;1.10;;;;;;;20.95;44.03;98602.14;233013;1223;138831;-58
2022/06/21 13:52:18;;;;;;;3.80;0.90;;;;;;;21.21;43.26;98603.16;233216;1222;139664;-57
2022/06/21 13:57:56;;;;;;;2.90;0.90;;;;;;;21.07;42.61;98612.90;232820;1223;138405;-56
2022/06/21 14:03:13;;;;;;;6.40;1.20;;;;;;;20.79;42.51;98616.25;233184;1222;139261;-58
2022/06/21 14:08:26;;;;;;;3.80;1.00;;;;;;;20.77;42.57;98601.46;232991;1222;138883;-55
2022/06/21 14:13:37;;;;;;;3.80;1.00;;;;;;;21.06;42.43;98596.23;232875;1223;138509;-58
2022/06/21 14:18:58;;;;;;;3.20;1.30;;;;;;;20.98;42.18;98598.00;232507;1223;139901;-55
2022/06/21 14:24:10;;;;;;;9.30;1.30;;;;;;;21.06;42.32;98603.10;232273;1222;139111;-57
2022/06/21 14:29:22;;;;;;;4.40;1.20;;;;;;;21.29;42.34;98598.30;233111;1222;140154;-55
2022/06/21 14:34:34;;;;;;;4.90;1.30;;;;;;;21.54;42.22;98599.45;233082;1223;139087;-55
2022/06/21 14:40:21;;;;;;;2.50;0.90;;;;;;;21.55;41.71;98596.59;232874;1223;139059;-55
2022/06/21 14:45:42;;;;;;;38.50;3.40;;;;;;;21.23;41.34;98604.03;233025;1221;141154;-55
2022/06/21 14:50:54;;;;;;;4.20;1.30;;;;;;;21.08;41.77;98601.41;232603;1223;139482;-56
2022/06/21 14:56:26;;;;;;;4.50;1.20;;;;;;;21.03;41.82;98586.67;232697;1223;138718;-56
2022/06/21 15:01:41;;;;;;;5.40;1.30;;;;;;;20.91;41.78;98585.65;232921;1222;138806;-57
2022/06/21 15:07:07;;;;;;;36.70;25.50;;;;;;;20.82;41.90;98588.53;232997;1222;138622;-54
2022/06/21 15:12:24;;;;;;;5.80;1.50;;;;;;;20.79;41.88;98598.30;232329;1222;138684;-57
2022/06/21 15:17:37;;;;;;;3.50;1.10;;;;;;;20.69;41.89;98591.74;233698;1221;139209;-54
2022/06/21 15:22:59;;;;;;;2.70;0.90;;;;;;;20.61;41.92;98581.98;233705;1222;139039;-55
2022/06/21 15:28:09;;;;;;;4.90;1.10;;;;;;;20.54;42.00;98584.70;233363;1222;141043;-56
2022/06/21 15:33:18;;;;;;;2.60;1.10;;;;;;;20.46;42.17;98591.66;233624;1222;138894;-55
2022/06/21 15:38:26;;;;;;;4.70;1.30;;;;;;;20.42;42.25;98589.14;233511;1221;138589;-56
2022/06/21 15:43:37;;;;;;;5.40;1.20;;;;;;;20.41;42.40;98591.20;233371;1222;139057;-54
2022/06/21 15:55:01;;;;;;;8.20;1.30;;;;;;;20.34;42.51;98581.71;233772;1222;138893;-56
2022/06/21 16:00:10;;;;;;;3.80;1.10;;;;;;;20.31;42.58;98584.23;233626;1222;138469;-55
2022/06/21 16:05:33;;;;;;;3.40;1.10;;;;;;;20.35;42.70;98588.94;233708;1222;138987;-56
2022/06/21 16:10:40;;;;;;;7.20;1.10;;;;;;;20.38;42.44;98581.64;233538;1222;139393;-56
2022/06/21 16:15:52;;;;;;;2.40;0.90;;;;;;;20.36;42.32;98583.03;233600;1222;139696;-56
2022/06/21 16:21:15;;;;;;;4.30;1.90;;;;;;;20.39;42.40;98586.78;233540;1222;138767;-55
2022/06/21 16:26:24;;;;;;;4.90;1.00;;;;;;;20.46;42.37;98585.59;231670;1222;138358;-56
2022/06/21 16:37:05;;;;;;;6.10;1.30;;;;;;;20.36;41.96;98589.42;231417;1222;139617;-54
2022/06/21 16:48:00;;;;;;;4.10;0.80;;;;;;;20.12;42.19;98585.02;233529;1222;138912;-55
2022/06/21 16:53:32;;;;;;;3.30;0.90;;;;;;;20.06;42.33;98579.16;233545;1223;138379;-56
2022/06/21 16:58:52;;;;;;;4.20;1.10;;;;;;;20.07;42.56;98584.63;233549;1222;138262;-55
2022/06/21 17:04:03;;;;;;;2.40;0.90;;;;;;;20.10;42.62;98581.65;233637;1222;139231;-55
2022/06/21 17:09:15;;;;;;;1.30;0.80;;;;;;;20.13;42.56;98595.02;231627;1222;140991;-57
2022/06/21 17:14:24;;;;;;;5.80;1.20;;;;;;;20.11;42.56;98599.55;233645;1223;140027;-56
2022/06/21 17:19:43;;;;;;;2.70;0.80;;;;;;;20.11;42.54;98596.99;233672;1222;139075;-55
2022/06/21 17:24:53;;;;;;;2.40;0.90;;;;;;;20.10;42.44;98594.38;233664;1222;139196;-56
2022/06/21 17:30:20;;;;;;;4.00;1.20;;;;;;;20.08;42.40;98585.09;233821;1222;139441;-55
2022/06/21 17:35:31;;;;;;;2.10;1.10;;;;;;;20.03;42.54;98586.11;233838;1222;138698;-57
2022/06/21 17:40:52;;;;;;;2.20;1.70;;;;;;;20.09;42.63;98591.41;233727;1222;138594;-56
2022/06/21 17:46:03;;;;;;;6.20;1.10;;;;;;;20.10;42.79;98594.79;233684;1222;139353;-58
2022/06/21 17:51:10;;;;;;;3.50;0.90;;;;;;;20.13;42.80;98595.03;233178;1221;139025;-58
2022/06/21 17:56:20;;;;;;;80.90;64.80;;;;;;;20.14;42.85;98590.38;233048;1222;139280;-56
2022/06/21 18:01:34;;;;;;;6.70;3.90;;;;;;;20.22;42.90;98600.67;233000;1223;139307;-55
2022/06/21 18:06:47;;;;;;;3.20;0.90;;;;;;;20.17;42.70;98597.95;232860;1223;138971;-55
2022/06/21 18:12:15;;;;;;;3.50;1.60;;;;;;;20.15;42.82;98598.52;233006;1223;138670;-55
2022/06/21 18:17:39;;;;;;;20.20;15.50;;;;;;;20.13;42.83;98596.18;233039;1223;138864;-54
2022/06/21 18:23:13;;;;;;;3.20;1.70;;;;;;;20.11;42.85;98597.50;232903;1223;139232;-55
2022/06/21 18:28:31;;;;;;;3.60;1.40;;;;;;;20.11;42.99;98596.34;232836;1223;139118;-56
2022/06/21 18:33:34;;;;;;;4.70;1.30;;;;;;;20.05;42.97;98601.61;232959;1223;139171;-57
2022/06/21 18:39:37;;;;;;;2.30;1.10;;;;;;;20.02;43.06;98596.77;233047;1223;138692;-56
2022/06/21 18:45:05;;;;;;;3.40;1.40;;;;;;;19.98;43.06;98596.63;232130;1224;139425;-54
2022/06/21 18:50:16;;;;;;;4.90;1.40;;;;;;;19.92;43.05;98592.54;232726;1223;139319;-54
2022/06/21 18:55:49;;;;;;;2.30;1.40;;;;;;;19.87;43.07;98598.36;232982;1222;138994;-53
2022/06/21 19:01:21;;;;;;;3.70;1.60;;;;;;;19.83;43.22;98600.75;233039;1223;139068;-55
2022/06/21 19:12:38;;;;;;;4.30;1.50;;;;;;;19.79;43.34;98618.60;233140;1222;138132;-55
2022/06/21 19:18:06;;;;;;;4.50;1.80;;;;;;;19.72;43.39;98617.93;233019;1223;138503;-56
2022/06/21 19:23:33;;;;;;;6.30;1.70;;;;;;;19.70;43.49;98626.11;232796;1224;138821;-57
2022/06/21 19:28:43;;;;;;;4.70;1.70;;;;;;;19.67;43.65;98630.36;232981;1223;138808;-56
2022/06/21 19:34:03;;;;;;;71.40;56.30;;;;;;;19.65;43.66;98634.61;232894;1222;138676;-58
2022/06/21 19:39:06;;;;;;;9.30;3.60;;;;;;;19.62;43.91;98634.68;233036;1222;139349;-55
2022/06/21 19:44:24;;;;;;;29.40;22.40;;;;;;;19.60;44.03;98635.20;232958;1222;138844;-52
2022/06/21 19:49:33;;;;;;;6.60;3.00;;;;;;;19.58;44.19;98643.98;232622;1222;138908;-52
2022/06/21 19:54:42;;;;;;;4.20;2.00;;;;;;;19.55;44.16;98640.95;232690;1222;138947;-54
2022/06/21 20:00:05;;;;;;;3.60;1.90;;;;;;;19.48;44.22;98631.14;232878;1223;138523;-55
2022/06/21 20:05:12;;;;;;;5.10;2.10;;;;;;;19.41;44.35;98620.84;233007;1223;139384;-57
2022/06/21 20:10:57;;;;;;;4.40;2.00;;;;;;;19.32;44.53;98616.55;232844;1223;138950;-56
2022/06/21 20:16:45;;;;;;;4.10;2.50;;;;;;;19.25;44.69;98615.00;232654;1222;139244;-56
2022/06/21 20:22:02;;;;;;;5.70;2.10;;;;;;;19.17;44.75;98617.79;232485;1222;141114;-57
2022/06/21 20:27:36;;;;;;;5.10;1.90;;;;;;;19.08;45.02;98630.38;233060;1221;138826;-54
2022/06/21 20:33:01;;;;;;;7.90;2.50;;;;;;;19.03;45.14;98637.36;232885;1223;139814;-52
2022/06/21 20:38:18;;;;;;;5.30;1.90;;;;;;;18.94;45.24;98637.92;232598;1223;140317;-55
2022/06/21 20:43:30;;;;;;;4.50;2.40;;;;;;;18.82;45.30;98643.71;232904;1223;139025;-57
2022/06/21 20:48:46;;;;;;;4.20;2.10;;;;;;;18.75;45.60;98645.17;233077;1223;138824;-55
2022/06/21 20:54:00;;;;;;;4.10;2.00;;;;;;;18.69;45.76;98643.40;232872;1222;140367;-55
2022/06/21 20:59:38;;;;;;;4.60;2.60;;;;;;;18.62;46.02;98641.02;232875;1222;139552;-56
2022/06/21 21:04:53;;;;;;;6.10;1.80;;;;;;;18.53;46.14;98640.83;232518;1223;140228;-57
2022/06/21 21:10:01;;;;;;;3.40;1.80;;;;;;;18.42;46.16;98640.02;232921;1222;139657;-55
2022/06/21 21:15:11;;;;;;;4.30;2.60;;;;;;;18.31;46.40;98640.97;232908;1223;139232;-56
2022/06/21 21:20:26;;;;;;;5.30;2.00;;;;;;;18.20;46.69;98644.20;233007;1223;138929;-55
2022/06/21 21:25:37;;;;;;;4.50;1.80;;;;;;;18.11;47.06;98655.98;232914;1222;138776;-55
2022/06/21 21:31:14;;;;;;;5.50;2.40;;;;;;;18.06;47.05;98648.61;232944;1223;139138;-54
2022/06/21 21:36:36;;;;;;;4.60;2.20;;;;;;;18.02;47.32;98656.91;233014;1222;138615;-55
2022/06/21 21:41:54;;;;;;;6.00;2.30;;;;;;;17.98;47.57;98648.67;232888;1222;138199;-53
2022/06/21 21:47:00;;;;;;;8.60;2.30;;;;;;;17.94;47.58;98643.19;233025;1223;138599;-54
2022/06/21 21:52:09;;;;;;;8.60;4.80;;;;;;;17.86;47.57;98641.59;232557;1222;139026;-52
2022/06/21 21:57:19;;;;;;;5.20;2.50;;;;;;;17.82;47.76;98636.33;233039;1222;138388;-53
2022/06/21 22:02:56;;;;;;;6.40;2.80;;;;;;;17.80;47.80;98634.70;233042;1223;138635;-53
2022/06/21 22:08:29;;;;;;;6.00;3.00;;;;;;;17.74;47.96;98632.60;233017;1223;138299;-53
2022/06/21 22:13:44;;;;;;;6.70;2.60;;;;;;;17.68;48.34;98632.05;232902;1221;139172;-53
2022/06/21 22:19:10;;;;;;;9.90;4.90;;;;;;;17.61;48.18;98637.27;232408;1223;138332;-56
2022/06/21 22:24:18;;;;;;;;;;;;;;;17.54;48.31;98629.70;233372;1222;139030;-53
2022/06/21 22:29:26;;;;;;;5.40;2.90;;;;;;;17.51;48.78;98633.02;232796;1223;125595;-53
2022/06/21 22:34:33;;;;;;;6.80;2.90;;;;;;;17.52;48.82;98642.23;232581;1224;138817;-53
2022/06/21 22:39:42;;;;;;;5.90;2.80;;;;;;;17.49;48.97;98634.86;232981;1222;139507;-54
2022/06/21 22:44:48;;;;;;;5.80;2.90;;;;;;;17.47;48.96;98642.49;232903;1223;139403;-54
2022/06/21 22:49:55;;;;;;;5.30;2.70;;;;;;;17.45;48.94;98643.29;233085;1222;138591;-55
2022/06/21 22:54:59;;;;;;;3.70;2.80;;;;;;;17.42;49.06;98642.67;233616;1221;139493;-56
2022/06/21 23:00:11;;;;;;;5.60;2.70;;;;;;;17.41;49.25;98641.71;233483;1222;138111;-54
2022/06/21 23:05:36;;;;;;;5.30;3.10;;;;;;;17.41;49.13;98648.88;232841;1222;140083;-55
2022/06/21 23:10:57;;;;;;;5.50;3.00;;;;;;;17.38;49.15;98654.21;233175;1221;139262;-53
2022/06/21 23:16:03;;;;;;;8.10;3.20;;;;;;;17.31;49.28;98651.06;232916;1223;140515;-52
2022/06/21 23:21:16;;;;;;;6.80;3.10;;;;;;;17.29;49.48;98648.44;233228;1222;139920;-53
2022/06/21 23:26:42;;;;;;;6.80;3.20;;;;;;;17.23;49.68;98647.23;232730;1222;139457;-51
2022/06/21 23:31:59;;;;;;;5.00;3.60;;;;;;;17.16;49.98;98646.06;233280;1222;230120;-51
2022/06/21 23:37:04;;;;;;;8.40;4.00;;;;;;;17.09;50.00;98642.45;233123;1222;140277;-52
2022/06/21 23:42:16;;;;;;;7.00;4.00;;;;;;;17.02;50.36;98640.43;233176;1222;138954;-53
2022/06/21 23:47:25;;;;;;;8.70;4.10;;;;;;;16.92;50.35;98635.42;232855;1222;140140;-52
2022/06/21 23:52:30;;;;;;;9.40;4.40;;;;;;;16.88;50.51;98633.20;233041;1222;138901;-51
2022/06/21 23:57:34;;;;;;;8.20;4.00;;;;;;;16.82;50.72;98630.52;233028;1222;139051;-50
